createdAt,value
2018-07-06T00:00:43.581Z,97587.17
2018-07-06T00:03:22.226Z,97586.11
2018-07-06T00:06:00.845Z,97587.27
2018-07-06T00:08:39.465Z,97590.59
2018-07-06T00:11:18.158Z,97586.22
2018-07-06T00:13:56.841Z,97590.66
2018-07-06T00:16:35.497Z,97595.58
2018-07-06T00:19:14.050Z,97586.69
2018-07-06T00:21:52.729Z,97589.84
2018-07-06T00:24:31.378Z,97581.84
2018-07-06T00:27:10.010Z,97576.83
2018-07-06T00:29:48.633Z,97587.30
2018-07-06T00:32:27.281Z,97587.52
2018-07-06T00:35:05.833Z,97590.67
2018-07-06T00:37:44.458Z,97594.58
2018-07-06T00:40:23.177Z,97593.27
2018-07-06T00:43:01.766Z,97597.14
2018-07-06T00:45:40.396Z,97607.97
2018-07-06T00:48:18.953Z,97610.11
2018-07-06T00:51:00.382Z,97612.12
2018-07-06T00:53:39.203Z,97612.63
2018-07-06T00:56:17.827Z,97615.84
2018-07-06T00:58:56.370Z,97625.53
2018-07-06T01:01:35.107Z,97624.16
2018-07-06T01:04:13.725Z,97622.17
2018-07-06T01:06:52.346Z,97624.91
2018-07-06T01:09:30.950Z,97625.20
2018-07-06T01:12:15.079Z,97622.09
2018-07-06T01:14:53.837Z,97625.20
2018-07-06T01:17:32.425Z,97628.48
2018-07-06T01:20:11.034Z,97636.72
2018-07-06T01:22:49.625Z,97637.23
2018-07-06T01:25:28.211Z,97639.94
2018-07-06T01:28:07.014Z,97628.52
2018-07-06T01:30:45.690Z,97633.82
2018-07-06T01:33:24.400Z,97633.82
2018-07-06T01:36:03.090Z,97637.34
2018-07-06T01:38:41.745Z,97635.96
2018-07-06T01:41:20.325Z,97646.35
2018-07-06T01:43:58.881Z,97645.25
2018-07-06T01:46:37.497Z,97652.48
2018-07-06T01:49:16.082Z,97650.04
2018-07-06T01:51:54.807Z,97654.06
2018-07-06T01:54:33.438Z,97650.02
2018-07-06T01:57:12.005Z,97648.84
2018-07-06T01:59:50.741Z,97651.53
2018-07-06T02:02:29.437Z,97653.04
2018-07-06T02:05:07.998Z,97656.86
2018-07-06T02:07:46.622Z,97655.43
2018-07-06T02:10:25.226Z,97658.03
2018-07-06T02:13:03.839Z,97664.91
2018-07-06T02:15:42.598Z,97661.91
2018-07-06T02:18:21.175Z,97664.84
2018-07-06T02:20:59.749Z,97662.77
2018-07-06T02:23:38.358Z,97667.98
2018-07-06T02:26:16.961Z,97665.61
2018-07-06T02:28:55.531Z,97668.00
2018-07-06T02:31:34.285Z,97668.13
2018-07-06T02:34:12.858Z,97663.25
2018-07-06T02:36:51.421Z,97668.11
2018-07-06T02:39:30.049Z,97667.25
2018-07-06T02:42:08.758Z,97665.94
2018-07-06T02:44:47.422Z,97661.87
2018-07-06T02:47:26.092Z,97662.16
2018-07-06T02:50:04.677Z,97663.66
2018-07-06T02:52:43.231Z,97670.46
2018-07-06T02:55:21.845Z,97677.61
2018-07-06T02:58:00.553Z,97682.47
2018-07-06T03:00:39.126Z,97688.23
2018-07-06T03:03:17.734Z,97692.30
2018-07-06T03:05:56.382Z,97687.76
2018-07-06T03:08:35.018Z,97693.95
2018-07-06T03:11:13.782Z,97693.52
2018-07-06T03:13:52.413Z,97692.72
2018-07-06T03:16:31.042Z,97697.69
2018-07-06T03:19:09.706Z,97697.91
2018-07-06T03:21:48.414Z,97697.14
2018-07-06T03:24:26.970Z,97695.40
2018-07-06T03:27:05.542Z,97698.87
2018-07-06T03:29:44.119Z,97695.89
2018-07-06T03:32:22.770Z,97697.41
2018-07-06T03:35:01.539Z,97699.11
2018-07-06T03:37:40.166Z,97702.16
2018-07-06T03:40:18.751Z,97703.45
2018-07-06T03:42:57.339Z,97702.80
2018-07-06T03:45:35.961Z,97709.30
2018-07-06T03:48:14.589Z,97713.61
2018-07-06T03:50:53.374Z,97712.13
2018-07-06T03:53:32.009Z,97714.17
2018-07-06T03:56:10.650Z,97716.13
2018-07-06T03:58:49.246Z,97721.42
2018-07-06T04:01:27.850Z,97724.70
2018-07-06T04:04:06.462Z,97727.09
2018-07-06T04:06:45.001Z,97722.13
2018-07-06T04:09:23.594Z,97724.41
2018-07-06T04:12:02.142Z,97732.43
2018-07-06T04:14:40.825Z,97732.52
2018-07-06T04:17:19.482Z,97734.03
2018-07-06T04:19:58.078Z,97738.34
2018-07-06T04:22:36.717Z,97734.80
2018-07-06T04:25:15.442Z,97731.11
2018-07-06T04:27:54.172Z,97739.78
2018-07-06T04:30:32.761Z,97737.08
2018-07-06T04:33:11.494Z,97747.91
2018-07-06T04:35:50.134Z,97746.92
2018-07-06T04:38:28.742Z,97752.33
2018-07-06T04:41:07.337Z,97752.44
2018-07-06T04:43:46.074Z,97755.14
2018-07-06T04:46:24.649Z,97756.55
2018-07-06T04:49:03.257Z,97759.36
2018-07-06T04:51:41.906Z,97763.59
2018-07-06T04:54:20.553Z,97766.93
2018-07-06T04:56:59.203Z,97766.70
2018-07-06T04:59:37.978Z,97766.36
2018-07-06T05:02:16.637Z,97773.60
2018-07-06T05:04:55.445Z,97772.39
2018-07-06T05:07:34.198Z,97771.55
2018-07-06T05:10:12.921Z,97780.72
2018-07-06T05:12:51.771Z,97783.66
2018-07-06T05:15:30.578Z,97783.91
2018-07-06T05:18:09.302Z,97779.88
2018-07-06T05:20:48.139Z,97782.27
2018-07-06T05:23:26.974Z,97790.47
2018-07-06T05:26:05.768Z,97786.91
2018-07-06T05:28:44.495Z,97794.41
2018-07-06T05:31:23.319Z,97797.75
2018-07-06T05:34:02.210Z,97802.62
2018-07-06T05:36:40.933Z,97807.27
2018-07-06T05:39:19.720Z,97809.21
2018-07-06T05:41:58.398Z,97813.23
2018-07-06T05:44:37.269Z,97814.20
2018-07-06T05:47:16.106Z,97813.64
2018-07-06T05:49:54.873Z,97814.84
2018-07-06T05:52:33.578Z,97812.25
2018-07-06T05:55:12.225Z,97820.58
2018-07-06T05:57:50.934Z,97824.80
2018-07-06T06:00:30.800Z,97817.97
2018-07-06T06:03:09.534Z,97820.14
2018-07-06T06:05:48.198Z,97828.69
2018-07-06T06:08:14.531Z,97825.23
2018-07-06T06:10:42.070Z,97829.13
2018-07-06T06:13:09.630Z,97830.84
2018-07-06T06:15:37.138Z,97835.38
2018-07-06T06:18:05.086Z,97831.67
2018-07-06T06:20:32.667Z,97835.33
2018-07-06T06:23:06.863Z,97836.76
2018-07-06T06:25:34.443Z,97839.23
2018-07-06T06:28:01.967Z,97842.81
2018-07-06T06:30:29.640Z,97844.23
2018-07-06T06:32:57.383Z,97845.20
2018-07-06T06:35:25.361Z,97850.27
2018-07-06T06:37:53.230Z,97853.58
2018-07-06T06:40:20.810Z,97851.63
2018-07-06T06:42:48.413Z,97851.39
2018-07-06T06:45:16.024Z,97861.47
2018-07-06T06:47:43.703Z,97860.61
2018-07-06T06:50:11.238Z,97861.58
2018-07-06T06:52:38.841Z,97861.02
2018-07-06T06:55:06.502Z,97861.75
2018-07-06T06:57:34.097Z,97868.88
2018-07-06T07:00:01.796Z,97866.62
2018-07-06T07:02:29.423Z,97862.43
2018-07-06T07:04:57.050Z,97863.54
2018-07-06T07:07:25.162Z,97873.41
2018-07-06T07:09:52.764Z,97867.16
2018-07-06T07:12:20.415Z,97867.84
2018-07-06T07:14:47.982Z,97862.57
2018-07-06T07:17:15.652Z,97868.31
2018-07-06T07:19:43.279Z,97868.36
2018-07-06T07:22:10.851Z,97870.52
2018-07-06T07:24:38.635Z,97865.48
2018-07-06T07:27:06.231Z,97862.78
2018-07-06T07:29:33.819Z,97863.52
2018-07-06T07:32:01.502Z,97868.28
2018-07-06T07:34:29.095Z,97863.62
2018-07-06T07:36:56.756Z,97874.78
2018-07-06T07:39:24.542Z,97879.39
2018-07-06T07:41:52.378Z,97867.22
2018-07-06T07:44:19.943Z,97880.06
2018-07-06T07:46:47.594Z,97879.87
2018-07-06T07:49:15.125Z,97879.20
2018-07-06T07:52:11.874Z,97884.10
2018-07-06T07:54:43.831Z,97886.53
2018-07-06T07:57:11.447Z,97892.63
2018-07-06T07:59:39.386Z,97897.16
2018-07-06T08:02:06.921Z,97894.58
2018-07-06T08:04:34.482Z,97894.47
2018-07-06T08:07:02.208Z,97903.47
2018-07-06T08:09:29.770Z,97900.55
2018-07-06T08:11:58.722Z,97905.00
2018-07-06T08:14:26.394Z,97907.26
2018-07-06T08:16:53.903Z,97905.44
2018-07-06T08:19:21.790Z,97909.12
2018-07-06T08:21:49.425Z,97915.80
2018-07-06T08:24:17.360Z,97920.05
2018-07-06T08:26:44.992Z,97921.14
2018-07-06T08:29:12.510Z,97910.74
2018-07-06T08:31:40.474Z,97918.34
2018-07-06T08:34:19.261Z,97927.53
2018-07-06T08:37:37.094Z,97927.96
2018-07-06T08:40:04.701Z,97925.58
2018-07-06T08:42:33.125Z,97930.86
2018-07-06T08:45:01.070Z,97933.43
2018-07-06T08:47:28.639Z,97942.64
2018-07-06T08:49:56.938Z,97938.44
2018-07-06T08:52:24.523Z,97940.61
2018-07-06T08:54:52.452Z,97937.47
2018-07-06T08:57:20.978Z,97940.53
2018-07-06T08:59:49.134Z,97941.90
2018-07-06T09:02:16.756Z,97948.30
2018-07-06T09:04:44.374Z,97956.73
2018-07-06T09:07:11.873Z,97956.34
2018-07-06T09:09:39.430Z,97954.70
2018-07-06T09:12:07.245Z,97955.88
2018-07-06T09:14:34.767Z,97962.45
2018-07-06T09:17:02.343Z,97960.27
2018-07-06T09:19:29.955Z,97960.17
2018-07-06T09:21:57.455Z,97961.62
2018-07-06T09:24:25.027Z,97962.19
2018-07-06T09:26:52.547Z,97960.02
2018-07-06T09:29:20.062Z,97967.42
2018-07-06T09:31:47.658Z,97963.30
2018-07-06T09:34:15.210Z,97962.19
2018-07-06T09:36:42.755Z,97962.28
2018-07-06T09:39:11.747Z,97964.77
2018-07-06T09:41:39.262Z,97964.04
2018-07-06T09:44:07.356Z,97966.14
2018-07-06T09:46:35.174Z,97961.44
2018-07-06T09:49:02.891Z,97958.55
2018-07-06T09:51:30.639Z,97966.03
2018-07-06T09:53:58.277Z,97969.26
2018-07-06T09:56:25.871Z,97965.06
2018-07-06T09:58:53.382Z,97965.45
2018-07-06T10:01:20.975Z,97969.58
2018-07-06T10:03:48.494Z,97963.72
2018-07-06T10:06:16.044Z,97971.08
2018-07-06T10:08:43.614Z,97976.35
2018-07-06T10:11:11.191Z,97967.88
2018-07-06T10:13:38.965Z,97971.36
2018-07-06T10:16:06.623Z,97971.13
2018-07-06T10:18:34.197Z,97972.73
2018-07-06T10:21:01.755Z,97970.81
2018-07-06T10:23:29.322Z,97974.55
2018-07-06T10:25:56.855Z,97970.36
2018-07-06T10:28:36.317Z,97975.52
2018-07-06T10:31:30.715Z,97982.38
2018-07-06T10:33:58.701Z,97983.41
2018-07-06T10:36:26.238Z,97980.08
2018-07-06T10:38:53.786Z,97977.88
2018-07-06T10:41:21.362Z,97982.55
2018-07-06T10:43:49.158Z,97981.89
2018-07-06T10:46:16.699Z,97982.59
2018-07-06T10:48:44.275Z,97985.02
2018-07-06T10:51:11.887Z,97984.83
2018-07-06T10:53:39.429Z,97986.50
2018-07-06T10:56:06.999Z,97988.78
2018-07-06T10:58:34.523Z,97984.88
2018-07-06T11:01:02.131Z,97982.45
2018-07-06T11:03:29.695Z,97978.27
2018-07-06T11:05:57.227Z,97975.23
2018-07-06T11:08:24.768Z,97980.49
2018-07-06T11:10:52.352Z,97986.84
2018-07-06T11:13:19.915Z,97979.28
2018-07-06T11:15:47.471Z,97982.96
2018-07-06T11:18:15.034Z,97978.05
2018-07-06T11:20:42.572Z,97976.45
2018-07-06T11:23:10.106Z,97971.00
2018-07-06T11:25:37.673Z,97965.88
2018-07-06T11:28:05.239Z,97969.72
2018-07-06T11:30:32.811Z,97966.87
2018-07-06T11:33:00.441Z,97973.97
2018-07-06T11:35:27.967Z,97975.84
2018-07-06T11:37:55.609Z,97976.04
2018-07-06T11:40:23.135Z,97967.22
2018-07-06T11:42:50.739Z,97968.73
2018-07-06T11:45:18.347Z,97971.39
2018-07-06T11:47:45.895Z,97966.89
2018-07-06T11:50:13.437Z,97975.62
2018-07-06T11:52:40.993Z,97972.38
2018-07-06T11:55:08.649Z,97966.66
2018-07-06T11:57:36.210Z,97967.05
2018-07-06T12:00:03.834Z,97961.86
2018-07-06T12:02:31.379Z,97962.88
2018-07-06T12:04:58.926Z,97962.91
2018-07-06T12:07:26.543Z,97963.95
2018-07-06T12:09:54.102Z,97965.06
2018-07-06T12:12:21.630Z,97964.92
2018-07-06T12:14:49.159Z,97967.30
2018-07-06T12:17:16.767Z,97964.37
2018-07-06T12:19:44.312Z,97969.00
2018-07-06T12:22:11.880Z,97969.22
2018-07-06T12:24:39.441Z,97970.93
2018-07-06T12:27:06.995Z,97974.13
2018-07-06T12:29:34.568Z,97976.84
2018-07-06T12:32:02.154Z,97978.06
2018-07-06T12:34:29.675Z,97977.92
2018-07-06T12:36:57.491Z,97975.55
2018-07-06T12:39:25.071Z,97971.26
2018-07-06T12:41:52.626Z,97973.14
2018-07-06T12:44:20.173Z,97969.50
2018-07-06T12:46:47.739Z,97972.69
2018-07-06T12:49:15.307Z,97978.12
2018-07-06T12:51:42.862Z,97974.41
2018-07-06T12:54:10.426Z,97972.39
2018-07-06T12:56:37.943Z,97971.30
2018-07-06T12:59:05.498Z,97969.36
2018-07-06T13:01:33.095Z,97976.14
2018-07-06T13:04:00.809Z,97970.98
2018-07-06T13:06:28.341Z,97977.36
2018-07-06T13:08:55.928Z,97968.19
2018-07-06T13:11:23.487Z,97969.72
2018-07-06T13:13:51.039Z,97974.90
2018-07-06T13:16:18.590Z,97970.64
2018-07-06T13:18:46.111Z,97969.09
2018-07-06T13:21:13.691Z,97978.12
2018-07-06T13:23:41.260Z,97974.13
2018-07-06T13:26:08.795Z,97983.63
2018-07-06T13:28:36.310Z,97978.66
2018-07-06T13:31:03.881Z,97980.47
2018-07-06T13:33:31.496Z,97979.26
2018-07-06T13:35:59.007Z,97976.25
2018-07-06T13:38:26.575Z,97977.58
2018-07-06T13:40:54.101Z,97979.95
2018-07-06T13:43:21.646Z,97981.89
2018-07-06T13:45:49.266Z,97985.38
2018-07-06T13:48:16.823Z,97982.16
2018-07-06T13:50:44.414Z,97976.90
2018-07-06T13:53:11.992Z,97977.30
2018-07-06T13:55:39.547Z,97971.14
2018-07-06T13:58:07.091Z,97974.67
2018-07-06T14:00:34.642Z,97978.63
2018-07-06T14:03:02.190Z,97974.95
2018-07-06T14:05:29.726Z,97974.06
2018-07-06T14:07:57.287Z,97970.23
2018-07-06T14:10:24.849Z,97968.45
2018-07-06T14:12:52.391Z,97974.48
2018-07-06T14:15:19.958Z,97977.62
2018-07-06T14:17:47.485Z,97977.62
2018-07-06T14:20:15.013Z,97982.01
2018-07-06T14:22:42.644Z,97983.63
2018-07-06T14:25:10.187Z,97984.05
2018-07-06T14:27:37.734Z,97986.50
2018-07-06T14:30:05.374Z,97986.83
2018-07-06T14:32:32.898Z,97989.59
2018-07-06T14:35:00.479Z,97981.42
2018-07-06T14:37:28.024Z,97987.44
2018-07-06T14:39:55.564Z,97981.37
2018-07-06T14:42:23.119Z,97981.15
2018-07-06T14:44:51.690Z,97979.56
2018-07-06T14:47:19.343Z,97981.55
2018-07-06T14:49:46.850Z,97982.90
2018-07-06T14:52:14.425Z,97977.73
2018-07-06T14:54:41.989Z,97977.83
2018-07-06T14:57:09.585Z,97973.51
2018-07-06T14:59:37.193Z,97970.95
2018-07-06T15:02:04.797Z,97977.19
2018-07-06T15:04:32.326Z,97976.56
2018-07-06T15:07:00.056Z,97970.48
2018-07-06T15:09:27.559Z,97971.39
2018-07-06T15:11:55.126Z,97973.44
2018-07-06T15:14:22.710Z,97967.19
2018-07-06T15:16:50.247Z,97973.46
2018-07-06T15:19:17.821Z,97971.55
2018-07-06T15:21:45.373Z,97974.39
2018-07-06T15:24:12.990Z,97962.94
2018-07-06T15:26:40.585Z,97964.22
2018-07-06T15:29:08.178Z,97953.93
2018-07-06T15:31:35.745Z,97959.87
2018-07-06T15:34:03.308Z,97955.12
2018-07-06T15:36:30.895Z,97953.78
2018-07-06T15:38:58.448Z,97952.91
2018-07-06T15:41:25.974Z,97957.73
2018-07-06T15:43:53.684Z,97948.89
2018-07-06T15:46:21.217Z,97953.40
2018-07-06T15:48:48.726Z,97950.13
2018-07-06T15:51:16.287Z,97945.30
2018-07-06T15:53:43.850Z,97948.27
2018-07-06T15:56:11.402Z,97953.23
2018-07-06T15:58:38.991Z,97948.30
2018-07-06T16:01:06.615Z,97950.48
2018-07-06T16:03:34.165Z,97942.48
2018-07-06T16:06:01.733Z,97949.33
2018-07-06T16:08:29.454Z,97947.25
2018-07-06T16:10:57.018Z,97943.75
2018-07-06T16:13:24.593Z,97946.95
2018-07-06T16:15:52.128Z,97952.22
2018-07-06T16:18:19.701Z,97949.69
2018-07-06T16:20:47.309Z,97951.00
2018-07-06T16:23:14.859Z,97945.64
2018-07-06T16:25:42.375Z,97948.17
2018-07-06T16:28:09.984Z,97946.75
2018-07-06T16:30:37.543Z,97947.13
2018-07-06T16:33:05.159Z,97942.63
2018-07-06T16:35:32.736Z,97948.59
2018-07-06T16:38:00.376Z,97944.61
2018-07-06T16:40:27.983Z,97949.81
2018-07-06T16:42:55.546Z,97949.50
2018-07-06T16:45:23.108Z,97951.95
2018-07-06T16:47:50.654Z,97954.00
2018-07-06T16:50:18.229Z,97949.57
2018-07-06T16:52:45.782Z,97956.48
2018-07-06T16:55:13.468Z,97956.42
2018-07-06T16:57:41.048Z,97957.41
2018-07-06T17:00:08.606Z,97955.96
2018-07-06T17:02:36.127Z,97954.89
2018-07-06T17:05:03.742Z,97962.73
2018-07-06T17:07:31.279Z,97959.30
2018-07-06T17:09:58.822Z,97956.35
2018-07-06T17:12:26.389Z,97957.51
2018-07-06T17:14:53.971Z,97956.73
2018-07-06T17:17:21.522Z,97952.28
2018-07-06T17:19:49.103Z,97955.72
2018-07-06T17:22:16.662Z,97964.63
2018-07-06T17:24:44.235Z,97956.75
2018-07-06T17:27:11.775Z,97955.34
2018-07-06T17:29:39.343Z,97954.41
2018-07-06T17:32:07.054Z,97950.06
2018-07-06T17:34:34.650Z,97953.61
2018-07-06T17:37:02.197Z,97956.48
2018-07-06T17:39:29.715Z,97954.12
2018-07-06T17:41:57.306Z,97956.55
2018-07-06T17:44:25.009Z,97952.86
2018-07-06T17:46:52.493Z,97951.25
2018-07-06T17:49:20.058Z,97959.86
2018-07-06T17:51:47.605Z,97954.20
2018-07-06T17:54:15.124Z,97953.99
2018-07-06T17:56:42.688Z,97956.41
2018-07-06T17:59:10.277Z,97954.05
2018-07-06T18:01:37.867Z,97967.11
2018-07-06T18:04:05.445Z,97965.85
2018-07-06T18:06:32.997Z,97968.16
2018-07-06T18:09:00.529Z,97972.19
2018-07-06T18:11:28.113Z,97977.77
2018-07-06T18:13:55.732Z,97974.39
2018-07-06T18:16:24.443Z,97986.24
2018-07-06T18:18:52.062Z,97986.66
2018-07-06T18:21:19.650Z,97987.72
2018-07-06T18:23:47.299Z,97987.75
2018-07-06T18:26:14.856Z,97993.22
2018-07-06T18:28:42.429Z,97985.58
2018-07-06T18:31:10.015Z,97994.09
2018-07-06T18:33:37.614Z,97997.18
2018-07-06T18:36:05.210Z,97998.09
2018-07-06T18:38:32.751Z,98002.30
2018-07-06T18:41:00.326Z,98003.81
2018-07-06T18:43:27.830Z,98004.06
2018-07-06T18:45:55.387Z,98005.47
2018-07-06T18:48:22.934Z,98008.55
2018-07-06T18:50:50.523Z,98013.98
2018-07-06T18:53:18.086Z,98013.36
2018-07-06T18:55:45.651Z,98013.49
2018-07-06T18:58:13.178Z,98016.70
2018-07-06T19:00:40.709Z,98019.32
2018-07-06T19:03:08.281Z,98019.67
2018-07-06T19:05:35.838Z,98021.73
2018-07-06T19:08:03.365Z,98017.22
2018-07-06T19:10:30.973Z,98027.63
2018-07-06T19:12:58.485Z,98032.41
2018-07-06T19:15:26.058Z,98039.82
2018-07-06T19:17:53.628Z,98034.17
2018-07-06T19:20:21.220Z,98042.87
2018-07-06T19:22:48.746Z,98046.77
2018-07-06T19:25:16.378Z,98054.05
2018-07-06T19:27:43.971Z,98053.91
2018-07-06T19:30:11.734Z,98057.30
2018-07-06T19:32:39.330Z,98065.66
2018-07-06T19:35:06.886Z,98063.59
2018-07-06T19:37:34.438Z,98069.78
2018-07-06T19:40:02.018Z,98078.34
2018-07-06T19:42:29.578Z,98087.69
2018-07-06T19:44:57.098Z,98082.91
2018-07-06T19:47:24.661Z,98089.41
2018-07-06T19:49:52.174Z,98092.33
2018-07-06T19:52:19.690Z,98099.38
2018-07-06T19:54:47.245Z,98099.06
2018-07-06T19:57:14.810Z,98104.36
2018-07-06T19:59:42.349Z,98107.09
2018-07-06T20:02:09.922Z,98110.87
2018-07-06T20:04:37.463Z,98113.80
2018-07-06T20:07:05.096Z,98115.84
2018-07-06T20:09:32.650Z,98118.98
2018-07-06T20:12:00.194Z,98121.02
2018-07-06T20:14:27.713Z,98126.34
2018-07-06T20:16:55.710Z,98128.93
2018-07-06T20:19:23.299Z,98125.95
2018-07-06T20:21:50.820Z,98131.55
2018-07-06T20:24:18.412Z,98129.59
2018-07-06T20:26:45.981Z,98130.45
2018-07-06T20:29:13.512Z,98130.98
2018-07-06T20:31:41.082Z,98132.16
2018-07-06T20:34:08.672Z,98142.24
2018-07-06T20:36:36.247Z,98132.91
2018-07-06T20:39:04.119Z,98142.54
2018-07-06T20:41:31.642Z,98131.68
2018-07-06T20:43:59.193Z,98132.53
2018-07-06T20:46:26.778Z,98138.16
2018-07-06T20:48:54.329Z,98145.16
2018-07-06T20:51:21.889Z,98144.69
2018-07-06T20:53:49.507Z,98147.06
2018-07-06T20:56:17.038Z,98154.38
2018-07-06T20:58:44.568Z,98146.53
2018-07-06T21:01:12.146Z,98148.11
2018-07-06T21:03:39.994Z,98151.08
2018-07-06T21:06:07.537Z,98157.50
2018-07-06T21:08:35.382Z,98161.91
2018-07-06T21:11:02.917Z,98159.69
2018-07-06T21:13:30.475Z,98164.41
2018-07-06T21:15:58.046Z,98164.74
2018-07-06T21:18:25.594Z,98163.70
2018-07-06T21:20:53.133Z,98167.34
2018-07-06T21:23:20.697Z,98172.78
2018-07-06T21:25:48.274Z,98169.78
2018-07-06T21:28:15.834Z,98168.19
2018-07-06T21:30:43.414Z,98164.11
2018-07-06T21:33:10.959Z,98168.38
2018-07-06T21:35:38.615Z,98170.09
2018-07-06T21:38:06.949Z,98175.24
2018-07-06T21:40:34.478Z,98171.84
2018-07-06T21:43:02.043Z,98172.88
2018-07-06T21:45:29.780Z,98174.97
2018-07-06T21:47:57.482Z,98167.52
2018-07-06T21:50:25.167Z,98170.13
2018-07-06T21:52:52.914Z,98172.34
2018-07-06T21:55:20.616Z,98171.73
2018-07-06T21:57:54.794Z,98172.13
2018-07-06T22:00:39.011Z,98172.16
2018-07-06T22:03:11.024Z,98177.18
2018-07-06T22:05:44.084Z,98175.14
2018-07-06T22:08:20.276Z,98179.27
2018-07-06T22:10:51.982Z,98170.46
2018-07-06T22:13:19.734Z,98175.44
2018-07-06T22:15:47.462Z,98172.28
2018-07-06T22:18:16.351Z,98173.21
2018-07-06T22:20:45.610Z,98169.13
2018-07-06T22:23:13.618Z,98172.09
2018-07-06T22:25:41.402Z,98168.52
2018-07-06T22:28:08.973Z,98171.48
2018-07-06T22:30:36.576Z,98171.77
2018-07-06T22:33:04.230Z,98168.97
2018-07-06T22:35:31.822Z,98170.14
2018-07-06T22:37:59.358Z,98173.88
2018-07-06T22:40:26.951Z,98171.70
2018-07-06T22:42:54.602Z,98172.34
2018-07-06T22:45:22.158Z,98176.55
2018-07-06T22:47:49.694Z,98173.48
2018-07-06T22:50:17.298Z,98176.57
2018-07-06T22:52:44.885Z,98172.37
2018-07-06T22:55:12.415Z,98176.70
2018-07-06T22:57:39.974Z,98177.48
2018-07-06T23:00:07.584Z,98179.67
2018-07-06T23:02:35.418Z,98187.59
2018-07-06T23:05:09.568Z,98186.22
2018-07-06T23:07:37.273Z,98187.23
2018-07-06T23:10:04.874Z,98184.95
2018-07-06T23:12:32.446Z,98185.48
2018-07-06T23:14:59.979Z,98188.42
2018-07-06T23:17:27.517Z,98190.70
2018-07-06T23:19:55.070Z,98187.91
2018-07-06T23:22:33.862Z,98187.02
2018-07-06T23:25:01.459Z,98189.72
2018-07-06T23:27:29.007Z,98188.66
2018-07-06T23:29:56.546Z,98193.50
2018-07-06T23:32:25.121Z,98188.94
2018-07-06T23:34:52.679Z,98193.64
2018-07-06T23:37:20.217Z,98191.75
2018-07-06T23:39:47.766Z,98193.52
2018-07-06T23:42:15.322Z,98197.36
2018-07-06T23:44:42.840Z,98204.48
2018-07-06T23:47:10.410Z,98207.55
2018-07-06T23:49:37.939Z,98218.76
2018-07-06T23:52:05.470Z,98210.73
2018-07-06T23:54:33.105Z,98211.13
2018-07-06T23:57:00.616Z,98215.20
2018-07-06T23:59:28.137Z,98218.00
